Time;durP1;ratioP1;P1;durP2;ratioP2;P2;SDS_P1;SDS_P2;PMS_P1;PMS_P2;Temp;Humidity;BMP_temperature;BMP_pressure;BME280_temperature;BME280_humidity;BME280_pressure;Samples;Min_cycle;Max_cycle;Signal;HPM_P1;HPM_P2
2023/08/13 00:01:14;;;;;;;0.20;0.10;;;;;;;;;;5045552;28;20044;-86
2023/08/13 00:03:43;;;;;;;0.20;0.10;;;;;;;;;;5026291;28;20890;-86
2023/08/13 00:08:57;;;;;;;;;;;;;;;;;;;;;
2023/08/13 00:11:33;;;;;;;0.20;0.10;;;;;;;;;;5015560;28;20107;-86
2023/08/13 00:13:59;;;;;;;0.20;0.10;;;;;;;;;;4974637;28;20053;-84
2023/08/13 00:16:25;;;;;;;0.20;0.10;;;;;;;;;;5010230;28;21495;-85
2023/08/13 00:18:51;;;;;;;0.20;0.10;;;;;;;;;;4998219;28;20065;-86
2023/08/13 00:21:20;;;;;;;0.45;0.17;;;;;;;;;;4975262;28;20045;-86
2023/08/13 00:23:46;;;;;;;0.20;0.10;;;;;;;;;;4988694;28;20084;-85
2023/08/13 00:26:12;;;;;;;0.20;0.10;;;;;;;;;;4981342;28;20033;-85
2023/08/13 00:28:39;;;;;;;0.20;0.10;;;;;;;;;;4989176;28;20048;-85
2023/08/13 00:31:05;;;;;;;0.20;0.00;;;;;;;;;;4994566;28;20037;-86
2023/08/13 00:33:31;;;;;;;0.20;0.10;;;;;;;;;;4993203;28;20624;-87
2023/08/13 00:35:57;;;;;;;0.20;0.13;;;;;;;;;;4994902;28;20038;-86
2023/08/13 00:38:23;;;;;;;0.20;0.10;;;;;;;;;;4979662;28;20128;-84
2023/08/13 00:40:52;;;;;;;0.20;0.10;;;;;;;;;;4977163;28;20091;-86
2023/08/13 00:43:18;;;;;;;0.20;0.13;;;;;;;;;;4982859;28;20041;-86
2023/08/13 00:45:44;;;;;;;0.20;0.17;;;;;;;;;;4981304;28;20099;-85
2023/08/13 00:48:10;;;;;;;0.20;0.10;;;;;;;;;;4978728;28;20460;-85
2023/08/13 00:50:37;;;;;;;0.20;0.10;;;;;;;;;;4990375;28;20168;-87
2023/08/13 00:53:07;;;;;;;0.20;0.08;;;;;;;;;;4996616;28;20409;-86
2023/08/13 00:55:33;;;;;;;0.20;0.00;;;;;;;;;;4996721;28;20278;-85
2023/08/13 00:58:00;;;;;;;0.20;0.10;;;;;;;;;;4989118;28;20049;-86
2023/08/13 01:00:27;;;;;;;0.20;0.10;;;;;;;;;;4983460;28;20102;-85
2023/08/13 01:02:53;;;;;;;0.32;0.30;;;;;;;;;;4974783;28;20041;-86
2023/08/13 01:05:21;;;;;;;0.20;0.10;;;;;;;;;;4997351;28;20457;-85
2023/08/13 01:07:51;;;;;;;0.20;0.10;;;;;;;;;;4997192;28;20099;-84
2023/08/13 01:10:36;;;;;;;0.20;0.10;;;;;;;;;;5009724;28;20813;-85
2023/08/13 01:13:11;;;;;;;0.20;0.10;;;;;;;;;;4974381;28;20124;-85
2023/08/13 01:15:39;;;;;;;0.20;0.10;;;;;;;;;;4979629;28;20041;-88
2023/08/13 01:18:08;;;;;;;0.20;0.10;;;;;;;;;;4980914;28;20047;-86
2023/08/13 01:20:39;;;;;;;0.28;0.28;;;;;;;;;;4977706;28;20058;-85
2023/08/13 01:23:20;;;;;;;0.20;0.10;;;;;;;;;;4974542;28;20120;-85
2023/08/13 01:25:57;;;;;;;0.20;0.10;;;;;;;;;;4970322;28;20048;-86
2023/08/13 01:28:43;;;;;;;0.20;0.10;;;;;;;;;;4979814;28;20103;-86
2023/08/13 01:31:23;;;;;;;0.20;0.10;;;;;;;;;;4975466;28;20045;-85
2023/08/13 01:33:50;;;;;;;0.20;0.00;;;;;;;;;;4979773;28;20053;-86
2023/08/13 01:36:17;;;;;;;0.20;0.10;;;;;;;;;;4996131;28;20490;-86
2023/08/13 01:38:44;;;;;;;0.35;0.30;;;;;;;;;;4995687;28;20386;-87
2023/08/13 01:41:11;;;;;;;0.20;0.10;;;;;;;;;;4980673;28;20045;-85
2023/08/13 01:43:48;;;;;;;0.20;0.10;;;;;;;;;;4993212;28;20088;-86
2023/08/13 01:46:19;;;;;;;0.20;0.10;;;;;;;;;;4989145;28;20124;-86
2023/08/13 01:48:45;;;;;;;0.20;0.10;;;;;;;;;;4978952;28;20048;-86
2023/08/13 01:51:11;;;;;;;0.20;0.00;;;;;;;;;;4979849;28;20041;-86
2023/08/13 01:53:40;;;;;;;0.20;0.00;;;;;;;;;;4998023;28;20033;-86
2023/08/13 01:56:06;;;;;;;0.88;0.80;;;;;;;;;;4996939;28;20033;-84
2023/08/13 01:58:32;;;;;;;0.20;0.00;;;;;;;;;;5002476;28;20041;-83
2023/08/13 02:01:00;;;;;;;0.20;0.10;;;;;;;;;;4994232;28;20528;-85
2023/08/13 02:03:26;;;;;;;0.20;0.10;;;;;;;;;;5000188;28;20053;-84
2023/08/13 02:06:11;;;;;;;0.20;0.08;;;;;;;;;;4988609;28;20905;-87
2023/08/13 02:08:39;;;;;;;0.20;0.10;;;;;;;;;;4999581;28;20045;-86
2023/08/13 02:11:13;;;;;;;0.20;0.10;;;;;;;;;;4994007;28;20583;-86
2023/08/13 02:13:39;;;;;;;0.20;0.00;;;;;;;;;;4997540;28;20572;-85
2023/08/13 02:16:08;;;;;;;0.20;0.10;;;;;;;;;;4984950;28;20037;-84
2023/08/13 02:18:34;;;;;;;0.20;0.20;;;;;;;;;;5002028;28;20045;-84
2023/08/13 02:21:09;;;;;;;0.20;0.00;;;;;;;;;;5000116;28;20093;-86
2023/08/13 02:23:41;;;;;;;0.20;0.10;;;;;;;;;;4983946;28;20815;-85
2023/08/13 02:26:07;;;;;;;0.20;0.10;;;;;;;;;;5001041;28;20041;-84
2023/08/13 02:28:33;;;;;;;0.20;0.10;;;;;;;;;;5000255;28;20506;-84
2023/08/13 02:30:59;;;;;;;0.20;0.10;;;;;;;;;;4984640;28;20176;-84
2023/08/13 02:33:25;;;;;;;0.20;0.20;;;;;;;;;;4983221;28;20121;-83
2023/08/13 02:35:51;;;;;;;0.22;0.03;;;;;;;;;;4998559;28;20038;-82
2023/08/13 02:38:18;;;;;;;0.20;0.10;;;;;;;;;;4989160;28;20037;-84
2023/08/13 02:40:44;;;;;;;0.20;0.10;;;;;;;;;;5000424;28;20041;-83
2023/08/13 02:43:10;;;;;;;0.20;0.10;;;;;;;;;;5005306;28;20064;-84
2023/08/13 02:45:36;;;;;;;0.20;0.10;;;;;;;;;;4985737;28;20073;-85
2023/08/13 02:48:05;;;;;;;0.20;0.10;;;;;;;;;;5006039;28;20045;-85
2023/08/13 02:50:31;;;;;;;0.20;0.20;;;;;;;;;;5004048;28;20485;-84
2023/08/13 02:52:57;;;;;;;0.20;0.10;;;;;;;;;;5003416;28;20108;-84
2023/08/13 02:55:23;;;;;;;0.20;0.10;;;;;;;;;;5001320;28;20099;-84
2023/08/13 02:57:52;;;;;;;0.30;0.15;;;;;;;;;;5001032;28;20514;-85
2023/08/13 03:00:20;;;;;;;0.20;0.00;;;;;;;;;;5004178;28;20045;-84
2023/08/13 03:02:52;;;;;;;0.20;0.10;;;;;;;;;;4986761;28;20041;-85
2023/08/13 03:05:21;;;;;;;0.20;0.03;;;;;;;;;;4981208;28;20045;-86
2023/08/13 03:07:52;;;;;;;0.20;0.10;;;;;;;;;;4998721;28;20049;-85
2023/08/13 03:10:25;;;;;;;0.40;0.40;;;;;;;;;;5001491;28;20067;-85
2023/08/13 03:13:01;;;;;;;;;;;;;;;;;;4982026;28;20034;-84
2023/08/13 03:15:27;;;;;;;0.30;0.25;;;;;;;;;;5017656;22;20011;-81
2023/08/13 03:17:53;;;;;;;0.20;0.00;;;;;;;;;;4999919;28;20067;-80
2023/08/13 03:20:19;;;;;;;0.20;0.10;;;;;;;;;;5014184;28;20106;-81
2023/08/13 03:22:45;;;;;;;0.20;0.10;;;;;;;;;;5002163;28;20188;-81
2023/08/13 03:25:11;;;;;;;0.20;0.20;;;;;;;;;;5010361;28;20524;-80
2023/08/13 03:27:38;;;;;;;0.20;0.10;;;;;;;;;;5008513;28;20052;-81
2023/08/13 03:30:04;;;;;;;0.20;0.00;;;;;;;;;;4979459;28;20469;-83
2023/08/13 03:32:30;;;;;;;0.20;0.10;;;;;;;;;;4997307;28;20050;-80
2023/08/13 03:34:56;;;;;;;0.25;0.20;;;;;;;;;;4993669;28;20037;-81
2023/08/13 03:37:22;;;;;;;0.20;0.08;;;;;;;;;;4997186;28;20508;-80
2023/08/13 03:39:48;;;;;;;1.30;0.57;;;;;;;;;;4992480;28;20041;-80
2023/08/13 03:42:14;;;;;;;0.20;0.10;;;;;;;;;;5021411;28;20750;-81
2023/08/13 03:44:41;;;;;;;0.20;0.20;;;;;;;;;;4998241;28;20111;-80
2023/08/13 03:47:07;;;;;;;0.40;0.30;;;;;;;;;;5000190;28;20048;-81
2023/08/13 03:49:33;;;;;;;0.20;0.10;;;;;;;;;;4996803;28;20045;-82
2023/08/13 03:51:59;;;;;;;0.20;0.10;;;;;;;;;;5000916;28;20393;-81
2023/08/13 03:54:26;;;;;;;0.20;0.10;;;;;;;;;;4983814;28;20537;-82
2023/08/13 03:56:52;;;;;;;0.20;0.10;;;;;;;;;;4983996;28;20123;-82
2023/08/13 03:59:18;;;;;;;0.20;0.10;;;;;;;;;;5005176;28;20586;-86
2023/08/13 04:01:44;;;;;;;0.20;0.10;;;;;;;;;;4994379;28;20581;-81
2023/08/13 04:04:10;;;;;;;0.20;0.10;;;;;;;;;;4976899;28;20037;-82
2023/08/13 04:06:36;;;;;;;0.22;0.15;;;;;;;;;;5001259;28;20041;-82
2023/08/13 04:09:02;;;;;;;0.20;0.10;;;;;;;;;;4993481;28;20047;-81
2023/08/13 04:11:28;;;;;;;0.20;0.10;;;;;;;;;;4982329;28;20045;-81
2023/08/13 04:13:55;;;;;;;0.20;0.10;;;;;;;;;;4980792;28;20045;-80
2023/08/13 04:16:21;;;;;;;0.20;0.10;;;;;;;;;;4987114;28;20409;-81
2023/08/13 04:18:47;;;;;;;0.20;0.10;;;;;;;;;;4981012;28;20164;-81
2023/08/13 04:21:13;;;;;;;0.20;0.10;;;;;;;;;;4984134;28;20518;-82
2023/08/13 04:23:39;;;;;;;0.20;0.10;;;;;;;;;;4999448;28;20073;-81
2023/08/13 04:26:05;;;;;;;0.20;0.00;;;;;;;;;;5006262;28;20045;-81
2023/08/13 04:28:31;;;;;;;0.20;0.10;;;;;;;;;;5003928;28;20049;-81
2023/08/13 04:30:58;;;;;;;0.20;0.03;;;;;;;;;;4983456;28;20529;-81
2023/08/13 04:33:24;;;;;;;0.20;0.10;;;;;;;;;;4988256;28;20567;-81
2023/08/13 04:35:53;;;;;;;0.20;0.10;;;;;;;;;;5000482;28;20045;-82
2023/08/13 04:38:20;;;;;;;0.20;0.10;;;;;;;;;;4985183;28;20102;-82
2023/08/13 04:40:49;;;;;;;0.20;0.10;;;;;;;;;;4993528;28;20065;-82
2023/08/13 04:43:16;;;;;;;0.20;0.10;;;;;;;;;;4999492;28;20049;-83
2023/08/13 04:45:48;;;;;;;0.20;0.10;;;;;;;;;;5001438;28;20521;-82
2023/08/13 04:48:18;;;;;;;0.20;0.00;;;;;;;;;;4998757;28;20042;-81
2023/08/13 04:50:44;;;;;;;0.77;0.70;;;;;;;;;;5002285;28;20036;-82
2023/08/13 04:53:10;;;;;;;0.20;0.10;;;;;;;;;;5004403;28;20076;-83
2023/08/13 04:55:36;;;;;;;0.20;0.10;;;;;;;;;;4999466;28;20095;-83
2023/08/13 04:58:02;;;;;;;0.20;0.17;;;;;;;;;;5003631;28;20741;-81
2023/08/13 05:00:28;;;;;;;0.20;0.10;;;;;;;;;;5012038;28;20045;-82
2023/08/13 05:02:54;;;;;;;0.38;0.20;;;;;;;;;;5000617;28;20037;-83
2023/08/13 05:05:21;;;;;;;0.50;0.10;;;;;;;;;;4987902;28;20484;-85
2023/08/13 05:07:46;;;;;;;0.20;0.20;;;;;;;;;;4996192;28;20740;-87
2023/08/13 05:10:13;;;;;;;0.20;0.00;;;;;;;;;;4977887;28;20136;-84
2023/08/13 05:12:39;;;;;;;0.20;0.10;;;;;;;;;;4987286;28;20089;-83
2023/08/13 05:15:05;;;;;;;0.20;0.10;;;;;;;;;;4968360;28;20052;-84
2023/08/13 05:17:31;;;;;;;0.20;0.10;;;;;;;;;;4984188;28;20039;-84
2023/08/13 05:19:57;;;;;;;0.20;0.10;;;;;;;;;;5011891;28;20155;-82
2023/08/13 05:22:23;;;;;;;0.20;0.10;;;;;;;;;;4977862;28;20120;-84
2023/08/13 05:24:49;;;;;;;0.20;0.10;;;;;;;;;;4988896;28;20038;-85
2023/08/13 05:27:15;;;;;;;0.30;0.10;;;;;;;;;;4985626;28;20049;-84
2023/08/13 05:29:41;;;;;;;0.20;0.10;;;;;;;;;;4986890;28;20339;-82
2023/08/13 05:32:07;;;;;;;0.20;0.10;;;;;;;;;;4986596;28;20169;-83
2023/08/13 05:34:33;;;;;;;0.20;0.03;;;;;;;;;;4986288;28;20041;-84
2023/08/13 05:36:59;;;;;;;0.30;0.20;;;;;;;;;;4985589;28;20128;-84
2023/08/13 05:39:25;;;;;;;0.20;0.10;;;;;;;;;;4983546;28;21060;-84
2023/08/13 05:41:51;;;;;;;0.20;0.10;;;;;;;;;;4986032;28;21786;-83
2023/08/13 05:44:17;;;;;;;0.20;0.10;;;;;;;;;;4974709;28;20052;-83
2023/08/13 05:46:43;;;;;;;0.20;0.10;;;;;;;;;;4983194;28;20498;-86
2023/08/13 05:49:09;;;;;;;0.20;0.00;;;;;;;;;;4978327;28;20096;-83
2023/08/13 05:51:35;;;;;;;0.35;0.25;;;;;;;;;;4980852;28;20451;-84
2023/08/13 05:54:01;;;;;;;2.05;0.68;;;;;;;;;;4984067;28;20571;-86
2023/08/13 05:56:27;;;;;;;0.20;0.10;;;;;;;;;;4987678;28;20041;-88
2023/08/13 05:58:53;;;;;;;0.20;0.20;;;;;;;;;;4985618;28;20037;-86
2023/08/13 06:01:20;;;;;;;0.20;0.00;;;;;;;;;;4982336;28;20060;-86
2023/08/13 06:03:48;;;;;;;0.20;0.10;;;;;;;;;;4988140;28;20042;-85
2023/08/13 06:06:20;;;;;;;0.32;0.32;;;;;;;;;;4988823;28;21982;-84
2023/08/13 06:08:47;;;;;;;0.20;0.10;;;;;;;;;;4983590;28;20109;-85
2023/08/13 06:11:13;;;;;;;0.20;0.10;;;;;;;;;;4983153;28;20042;-85
2023/08/13 06:13:39;;;;;;;0.20;0.10;;;;;;;;;;4986034;28;20068;-84
2023/08/13 06:16:09;;;;;;;0.20;0.10;;;;;;;;;;4986872;28;20056;-88
2023/08/13 06:18:35;;;;;;;0.20;0.10;;;;;;;;;;4997951;28;20521;-85
2023/08/13 06:21:03;;;;;;;0.20;0.10;;;;;;;;;;4985040;28;20465;-85
2023/08/13 06:23:30;;;;;;;0.73;0.35;;;;;;;;;;4988115;28;20084;-83
2023/08/13 06:25:56;;;;;;;0.20;0.05;;;;;;;;;;5000327;28;20506;-87
2023/08/13 06:28:22;;;;;;;0.20;0.05;;;;;;;;;;5024614;28;20045;-83
2023/08/13 06:30:49;;;;;;;0.20;0.10;;;;;;;;;;4991064;28;20137;-85
2023/08/13 06:33:15;;;;;;;0.20;0.10;;;;;;;;;;4988970;28;20037;-83
2023/08/13 06:35:47;;;;;;;0.20;0.10;;;;;;;;;;5023078;28;20041;-84
2023/08/13 06:38:13;;;;;;;0.20;0.20;;;;;;;;;;4998166;28;20037;-85
2023/08/13 06:40:39;;;;;;;0.20;0.10;;;;;;;;;;5000720;28;20037;-84
2023/08/13 06:43:05;;;;;;;0.20;0.10;;;;;;;;;;4985756;28;20052;-85
2023/08/13 06:45:37;;;;;;;0.20;0.10;;;;;;;;;;5003261;28;20041;-84
2023/08/13 06:48:04;;;;;;;0.20;0.10;;;;;;;;;;4977960;28;20049;-84
2023/08/13 06:50:38;;;;;;;1.48;0.95;;;;;;;;;;4985322;28;20037;-85
2023/08/13 06:53:04;;;;;;;0.20;0.10;;;;;;;;;;5000694;28;20124;-83
2023/08/13 06:55:30;;;;;;;0.20;0.08;;;;;;;;;;4999183;28;20123;-84
2023/08/13 06:57:56;;;;;;;0.95;0.52;;;;;;;;;;5033772;28;20033;-88
2023/08/13 07:00:22;;;;;;;0.20;0.10;;;;;;;;;;4995115;28;20037;-85
2023/08/13 07:02:50;;;;;;;0.20;0.10;;;;;;;;;;4978696;28;20068;-82
2023/08/13 07:05:18;;;;;;;0.20;0.10;;;;;;;;;;4984455;28;20040;-84
2023/08/13 07:07:53;;;;;;;0.20;0.10;;;;;;;;;;5020082;28;20141;-84
2023/08/13 07:10:19;;;;;;;0.20;0.05;;;;;;;;;;4984104;28;20044;-84
2023/08/13 07:12:45;;;;;;;0.20;0.10;;;;;;;;;;5002903;28;20037;-85
2023/08/13 07:15:11;;;;;;;0.20;0.10;;;;;;;;;;4988182;28;20398;-84
2023/08/13 07:17:37;;;;;;;0.20;0.10;;;;;;;;;;4997271;28;20042;-84
2023/08/13 07:20:08;;;;;;;0.20;0.10;;;;;;;;;;4995517;28;20044;-85
2023/08/13 07:22:34;;;;;;;0.20;0.10;;;;;;;;;;4990627;28;20128;-82
2023/08/13 07:25:01;;;;;;;0.20;0.00;;;;;;;;;;4989604;28;20091;-84
2023/08/13 07:27:27;;;;;;;0.20;0.10;;;;;;;;;;5001484;28;20037;-83
2023/08/13 07:29:53;;;;;;;0.20;0.10;;;;;;;;;;5032243;28;20041;-84
2023/08/13 07:32:19;;;;;;;0.20;0.10;;;;;;;;;;4999455;28;20081;-84
2023/08/13 07:34:45;;;;;;;0.20;0.10;;;;;;;;;;4993710;28;20091;-84
2023/08/13 07:37:12;;;;;;;0.20;0.10;;;;;;;;;;5006796;28;20033;-85
2023/08/13 07:39:38;;;;;;;0.20;0.10;;;;;;;;;;5005528;28;20041;-86
2023/08/13 07:42:04;;;;;;;0.20;0.10;;;;;;;;;;5003191;28;20045;-82
2023/08/13 07:44:30;;;;;;;1.05;0.95;;;;;;;;;;5029645;28;20044;-87
2023/08/13 07:46:58;;;;;;;0.20;0.10;;;;;;;;;;4997087;28;20090;-85
2023/08/13 07:49:25;;;;;;;0.20;0.10;;;;;;;;;;4995818;28;20461;-84
2023/08/13 07:51:56;;;;;;;0.20;0.10;;;;;;;;;;4990292;28;20387;-85
2023/08/13 07:54:23;;;;;;;0.20;0.10;;;;;;;;;;5002170;28;20533;-85
2023/08/13 07:56:51;;;;;;;0.38;0.38;;;;;;;;;;4990191;28;20116;-86
2023/08/13 07:59:20;;;;;;;1.38;0.77;;;;;;;;;;4999900;28;20068;-87
2023/08/13 08:01:50;;;;;;;0.25;0.20;;;;;;;;;;4999291;28;20037;-85
2023/08/13 08:04:16;;;;;;;0.50;0.10;;;;;;;;;;5016719;28;20038;-85
2023/08/13 08:06:45;;;;;;;0.35;0.20;;;;;;;;;;5001264;28;20067;-84
2023/08/13 08:09:14;;;;;;;0.20;0.10;;;;;;;;;;4999185;28;20047;-86
2023/08/13 08:12:02;;;;;;;0.20;0.10;;;;;;;;;;5002632;28;21176;-87
2023/08/13 08:14:38;;;;;;;0.20;0.08;;;;;;;;;;4985890;28;20561;-89
2023/08/13 08:17:25;;;;;;;0.20;0.10;;;;;;;;;;4990850;28;20076;-84
2023/08/13 08:19:51;;;;;;;0.20;0.10;;;;;;;;;;4990281;28;20038;-86
2023/08/13 08:22:20;;;;;;;0.20;0.10;;;;;;;;;;5004596;28;20605;-86
2023/08/13 08:24:50;;;;;;;0.20;0.10;;;;;;;;;;5002098;28;20056;-85
2023/08/13 08:27:25;;;;;;;0.20;0.10;;;;;;;;;;5005881;28;20053;-86
2023/08/13 08:30:00;;;;;;;0.57;0.57;;;;;;;;;;5002194;28;20265;-87
2023/08/13 08:32:32;;;;;;;0.20;0.10;;;;;;;;;;4988067;28;20331;-85
2023/08/13 08:35:01;;;;;;;0.32;0.10;;;;;;;;;;5003250;28;20402;-88
2023/08/13 08:37:31;;;;;;;7.22;1.05;;;;;;;;;;4989736;28;20040;-85
2023/08/13 08:39:58;;;;;;;0.20;0.10;;;;;;;;;;4999053;28;20654;-85
2023/08/13 08:46:00;;;;;;;0.20;0.20;;;;;;;;;;4978287;28;20053;-86
2023/08/13 08:48:34;;;;;;;0.20;0.10;;;;;;;;;;4984522;28;20194;-88
2023/08/13 08:51:08;;;;;;;0.20;0.10;;;;;;;;;;5000018;28;20072;-84
2023/08/13 08:53:59;;;;;;;0.20;0.10;;;;;;;;;;5001501;28;20057;-85
2023/08/13 08:56:28;;;;;;;0.20;0.10;;;;;;;;;;4983659;28;20037;-85
2023/08/13 08:58:54;;;;;;;0.20;0.10;;;;;;;;;;4989819;28;20036;-86
2023/08/13 09:01:20;;;;;;;0.20;0.03;;;;;;;;;;4997131;28;20100;-86
2023/08/13 09:03:46;;;;;;;0.20;0.10;;;;;;;;;;4976581;28;20600;-87
2023/08/13 09:06:12;;;;;;;0.20;0.10;;;;;;;;;;5030919;28;20095;-87
2023/08/13 09:08:38;;;;;;;0.30;0.15;;;;;;;;;;5001652;28;20491;-84
2023/08/13 09:11:04;;;;;;;0.20;0.17;;;;;;;;;;4983508;28;20033;-85
2023/08/13 09:13:30;;;;;;;0.20;0.10;;;;;;;;;;5026844;28;20103;-87
2023/08/13 09:15:56;;;;;;;1.15;0.30;;;;;;;;;;5005000;22;20076;-83
2023/08/13 09:18:23;;;;;;;0.20;0.10;;;;;;;;;;5015733;28;20567;-83
2023/08/13 09:20:51;;;;;;;0.20;0.10;;;;;;;;;;4994466;28;20045;-83
2023/08/13 09:23:21;;;;;;;0.20;0.10;;;;;;;;;;5023651;28;20086;-82
2023/08/13 09:25:54;;;;;;;0.20;0.10;;;;;;;;;;5015155;28;20041;-84
2023/08/13 09:28:21;;;;;;;0.20;0.17;;;;;;;;;;5030865;28;20063;-84
2023/08/13 09:30:47;;;;;;;0.73;0.55;;;;;;;;;;5023530;28;20188;-83
2023/08/13 09:33:17;;;;;;;0.20;0.10;;;;;;;;;;5017280;28;20030;-83
2023/08/13 09:35:44;;;;;;;0.20;0.10;;;;;;;;;;5016262;28;20151;-85
2023/08/13 09:38:10;;;;;;;0.20;0.10;;;;;;;;;;5033831;28;20033;-85
2023/08/13 09:40:36;;;;;;;0.20;0.10;;;;;;;;;;5015607;28;20958;-82
2023/08/13 09:43:09;;;;;;;0.35;0.15;;;;;;;;;;5025710;28;20124;-85
2023/08/13 09:45:36;;;;;;;0.22;0.08;;;;;;;;;;5041641;28;20041;-85
2023/08/13 09:48:06;;;;;;;0.20;0.10;;;;;;;;;;5016609;28;20036;-85
2023/08/13 09:50:40;;;;;;;0.20;0.10;;;;;;;;;;5016582;28;20048;-85
2023/08/13 09:53:08;;;;;;;0.20;0.10;;;;;;;;;;5004405;28;20046;-83
2023/08/13 09:55:37;;;;;;;0.20;0.10;;;;;;;;;;5015901;28;20096;-82
2023/08/13 09:58:05;;;;;;;0.20;0.20;;;;;;;;;;5012178;28;20076;-82
2023/08/13 10:00:31;;;;;;;0.20;0.10;;;;;;;;;;5014000;28;20052;-83
2023/08/13 10:02:57;;;;;;;0.25;0.20;;;;;;;;;;5005006;28;20041;-82
2023/08/13 10:05:24;;;;;;;0.25;0.17;;;;;;;;;;5016006;28;20698;-82
2023/08/13 10:07:50;;;;;;;0.20;0.03;;;;;;;;;;5021315;28;21463;-82
2023/08/13 10:10:17;;;;;;;0.20;0.10;;;;;;;;;;5016817;28;20037;-85
2023/08/13 10:12:43;;;;;;;0.20;0.10;;;;;;;;;;5009565;28;20155;-83
2023/08/13 10:15:09;;;;;;;0.20;0.10;;;;;;;;;;5032194;28;20559;-82
2023/08/13 10:17:35;;;;;;;0.20;0.00;;;;;;;;;;5022183;28;20469;-84
2023/08/13 10:20:03;;;;;;;0.20;0.00;;;;;;;;;;5016096;28;20060;-86
2023/08/13 10:22:32;;;;;;;0.57;0.57;;;;;;;;;;5021740;28;20207;-81
2023/08/13 10:24:59;;;;;;;0.20;0.10;;;;;;;;;;5032665;28;20462;-85
2023/08/13 10:27:26;;;;;;;0.20;0.10;;;;;;;;;;5035383;28;20559;-83
2023/08/13 10:30:04;;;;;;;0.20;0.10;;;;;;;;;;5030491;28;20091;-81
2023/08/13 10:32:30;;;;;;;0.20;0.10;;;;;;;;;;5035256;28;20116;-84
2023/08/13 10:34:56;;;;;;;0.20;0.10;;;;;;;;;;5032168;28;20052;-82
2023/08/13 10:37:31;;;;;;;0.20;0.10;;;;;;;;;;5020601;28;20040;-84
2023/08/13 10:39:57;;;;;;;0.30;0.20;;;;;;;;;;5029264;28;20044;-83
2023/08/13 10:42:26;;;;;;;0.20;0.10;;;;;;;;;;5031578;28;20036;-81
2023/08/13 10:44:53;;;;;;;0.20;0.08;;;;;;;;;;5020718;28;20801;-83
2023/08/13 10:47:19;;;;;;;0.22;0.20;;;;;;;;;;5013594;28;20169;-83
2023/08/13 10:49:48;;;;;;;0.20;0.10;;;;;;;;;;5022659;28;20045;-84
2023/08/13 10:52:14;;;;;;;0.20;0.10;;;;;;;;;;5021176;28;20274;-84
2023/08/13 10:55:09;;;;;;;0.20;0.10;;;;;;;;;;5013110;28;20115;-84
2023/08/13 10:57:35;;;;;;;0.25;0.15;;;;;;;;;;5011227;28;20049;-82
2023/08/13 11:00:07;;;;;;;0.20;0.10;;;;;;;;;;5020124;28;20040;-83
2023/08/13 11:02:38;;;;;;;0.20;0.08;;;;;;;;;;5039271;28;20052;-84
2023/08/13 11:05:08;;;;;;;0.20;0.10;;;;;;;;;;5035814;28;20047;-82
2023/08/13 11:07:35;;;;;;;0.20;0.10;;;;;;;;;;5024749;28;20045;-83
2023/08/13 11:10:03;;;;;;;0.20;0.05;;;;;;;;;;5011694;28;20097;-82
2023/08/13 11:12:32;;;;;;;0.20;0.10;;;;;;;;;;5027426;28;20059;-82
2023/08/13 11:15:11;;;;;;;5.15;1.17;;;;;;;;;;5036151;28;20048;-81
2023/08/13 11:17:47;;;;;;;0.85;0.57;;;;;;;;;;5031407;28;20497;-83
2023/08/13 11:20:23;;;;;;;0.20;0.10;;;;;;;;;;5016330;28;20060;-83
2023/08/13 11:25:39;;;;;;;1.45;0.45;;;;;;;;;;5033476;28;20056;-82
2023/08/13 11:28:05;;;;;;;0.20;0.10;;;;;;;;;;5020496;28;20845;-83
2023/08/13 11:30:54;;;;;;;0.20;0.10;;;;;;;;;;5021543;28;20044;-83
2023/08/13 11:33:20;;;;;;;0.20;0.20;;;;;;;;;;5007416;28;20092;-82
2023/08/13 11:35:50;;;;;;;0.30;0.10;;;;;;;;;;5003129;28;20067;-84
2023/08/13 11:38:16;;;;;;;0.20;0.00;;;;;;;;;;5013680;28;20045;-83
2023/08/13 11:40:42;;;;;;;0.20;0.10;;;;;;;;;;5004388;28;20461;-83
2023/08/13 11:43:12;;;;;;;0.20;0.10;;;;;;;;;;5035485;28;20110;-83
2023/08/13 11:45:39;;;;;;;0.20;0.10;;;;;;;;;;5038487;28;20114;-82
2023/08/13 11:48:15;;;;;;;0.20;0.10;;;;;;;;;;5026622;28;20049;-86
2023/08/13 11:50:42;;;;;;;0.20;0.10;;;;;;;;;;5021838;28;20045;-83
2023/08/13 11:53:12;;;;;;;0.20;0.10;;;;;;;;;;5008644;28;20064;-84
2023/08/13 11:55:39;;;;;;;0.20;0.10;;;;;;;;;;5031543;28;20037;-83
2023/08/13 11:58:05;;;;;;;1.85;0.65;;;;;;;;;;5015302;28;20043;-82
2023/08/13 12:00:32;;;;;;;0.20;0.10;;;;;;;;;;5030021;28;20504;-85
2023/08/13 12:02:59;;;;;;;0.20;0.10;;;;;;;;;;5009291;28;20037;-84
2023/08/13 12:05:29;;;;;;;0.20;0.10;;;;;;;;;;5033953;28;20053;-83
2023/08/13 12:08:04;;;;;;;0.20;0.10;;;;;;;;;;5021402;28;20060;-83
2023/08/13 12:10:31;;;;;;;0.20;0.10;;;;;;;;;;5021013;28;20080;-84
2023/08/13 12:12:57;;;;;;;0.20;0.00;;;;;;;;;;5011676;28;20033;-82
2023/08/13 12:15:24;;;;;;;0.20;0.10;;;;;;;;;;5005674;28;20410;-84
2023/08/13 12:17:53;;;;;;;0.40;0.10;;;;;;;;;;5016867;28;20087;-85
2023/08/13 12:20:20;;;;;;;0.20;0.10;;;;;;;;;;5015712;28;20036;-84
2023/08/13 12:22:46;;;;;;;0.20;0.10;;;;;;;;;;5012172;28;20049;-83
2023/08/13 12:25:12;;;;;;;0.20;0.10;;;;;;;;;;5029966;28;20048;-84
2023/08/13 12:27:38;;;;;;;0.20;0.10;;;;;;;;;;5014571;28;20073;-84
2023/08/13 12:30:07;;;;;;;0.35;0.10;;;;;;;;;;5040750;28;20557;-85
2023/08/13 12:32:43;;;;;;;0.20;0.10;;;;;;;;;;5026498;28;20159;-85
2023/08/13 12:35:09;;;;;;;0.20;0.10;;;;;;;;;;5012615;28;20034;-84
2023/08/13 12:37:35;;;;;;;0.20;0.13;;;;;;;;;;5041262;28;20896;-84
2023/08/13 12:40:02;;;;;;;0.20;0.10;;;;;;;;;;5036150;28;20055;-84
2023/08/13 12:42:28;;;;;;;0.35;0.22;;;;;;;;;;5043285;28;20041;-82
2023/08/13 12:44:54;;;;;;;0.40;0.40;;;;;;;;;;5030182;28;20056;-83
2023/08/13 12:47:20;;;;;;;0.20;0.00;;;;;;;;;;5022933;28;20039;-84
2023/08/13 12:49:47;;;;;;;0.20;0.10;;;;;;;;;;5011881;28;20046;-83
2023/08/13 12:52:13;;;;;;;0.40;0.10;;;;;;;;;;5025514;28;20061;-84
2023/08/13 12:54:42;;;;;;;0.20;0.08;;;;;;;;;;5034218;28;20112;-83
2023/08/13 12:57:21;;;;;;;0.20;0.10;;;;;;;;;;5025489;28;20037;-81
2023/08/13 12:59:51;;;;;;;0.20;0.10;;;;;;;;;;5039557;28;20079;-84
2023/08/13 13:02:38;;;;;;;0.20;0.08;;;;;;;;;;5036706;28;20048;-82
2023/08/13 13:05:06;;;;;;;0.43;0.32;;;;;;;;;;5035793;28;20075;-84
2023/08/13 13:07:32;;;;;;;0.20;0.10;;;;;;;;;;5025747;28;20041;-84
2023/08/13 13:10:01;;;;;;;0.20;0.10;;;;;;;;;;5031750;28;20055;-84
2023/08/13 13:12:31;;;;;;;0.20;0.10;;;;;;;;;;5019478;28;20072;-83
2023/08/13 13:15:01;;;;;;;0.25;0.05;;;;;;;;;;5028722;28;20064;-85
2023/08/13 13:17:39;;;;;;;0.20;0.10;;;;;;;;;;5021960;28;20041;-84
2023/08/13 13:20:11;;;;;;;2.05;0.57;;;;;;;;;;5021744;28;20043;-83
2023/08/13 13:22:38;;;;;;;0.20;0.17;;;;;;;;;;5021270;28;20037;-83
2023/08/13 13:25:13;;;;;;;0.20;0.10;;;;;;;;;;5035077;28;20037;-85
2023/08/13 13:27:51;;;;;;;0.20;0.20;;;;;;;;;;5024188;28;20044;-83
2023/08/13 13:30:17;;;;;;;0.20;0.10;;;;;;;;;;5021999;28;20049;-83
2023/08/13 13:32:47;;;;;;;0.30;0.22;;;;;;;;;;5015964;28;20049;-83
2023/08/13 13:35:13;;;;;;;0.20;0.10;;;;;;;;;;5035896;28;20123;-84
2023/08/13 13:37:39;;;;;;;0.20;0.10;;;;;;;;;;5030551;28;20051;-86
2023/08/13 13:40:13;;;;;;;0.20;0.13;;;;;;;;;;5020674;28;20072;-85
2023/08/13 13:42:39;;;;;;;0.20;0.10;;;;;;;;;;5019459;28;20549;-83
2023/08/13 13:45:06;;;;;;;0.20;0.10;;;;;;;;;;5036989;28;20505;-83
2023/08/13 13:47:33;;;;;;;0.57;0.20;;;;;;;;;;5027973;28;20045;-83
2023/08/13 13:49:59;;;;;;;0.20;0.10;;;;;;;;;;5020789;28;20126;-85
2023/08/13 13:52:25;;;;;;;0.20;0.10;;;;;;;;;;5036715;28;20064;-86
2023/08/13 13:54:52;;;;;;;0.20;0.10;;;;;;;;;;5037455;28;20028;-86
2023/08/13 13:57:19;;;;;;;0.20;0.10;;;;;;;;;;5020768;28;20033;-85
2023/08/13 13:59:45;;;;;;;0.20;0.10;;;;;;;;;;5028971;28;20529;-84
2023/08/13 14:02:11;;;;;;;0.30;0.10;;;;;;;;;;5035046;28;20037;-84
2023/08/13 14:04:37;;;;;;;0.20;0.10;;;;;;;;;;5015639;28;20045;-83
2023/08/13 14:07:03;;;;;;;1.27;0.22;;;;;;;;;;5029727;28;20108;-84
2023/08/13 14:09:29;;;;;;;0.20;0.10;;;;;;;;;;5021384;28;20037;-84
2023/08/13 14:11:55;;;;;;;0.20;0.10;;;;;;;;;;4998793;28;20053;-84
2023/08/13 14:14:21;;;;;;;0.20;0.10;;;;;;;;;;5040440;28;20608;-84
2023/08/13 14:16:47;;;;;;;0.20;0.10;;;;;;;;;;5009327;28;20049;-85
2023/08/13 14:19:13;;;;;;;1.90;0.47;;;;;;;;;;5031971;28;20090;-83
2023/08/13 14:21:39;;;;;;;0.20;0.10;;;;;;;;;;5013387;28;20502;-83
2023/08/13 14:24:05;;;;;;;0.35;0.35;;;;;;;;;;5036676;28;20168;-85
2023/08/13 14:26:31;;;;;;;0.60;0.10;;;;;;;;;;5037067;28;20083;-86
2023/08/13 14:28:57;;;;;;;0.20;0.10;;;;;;;;;;5035511;28;20041;-85
2023/08/13 14:31:29;;;;;;;0.28;0.20;;;;;;;;;;5040991;28;20505;-84
2023/08/13 14:33:55;;;;;;;0.20;0.10;;;;;;;;;;5016370;28;20099;-82
2023/08/13 14:36:21;;;;;;;0.20;0.20;;;;;;;;;;5035204;28;20322;-84
2023/08/13 14:38:47;;;;;;;0.20;0.10;;;;;;;;;;5006192;28;20033;-85
2023/08/13 14:41:13;;;;;;;0.20;0.10;;;;;;;;;;5042970;28;20037;-85
2023/08/13 14:43:43;;;;;;;0.20;0.20;;;;;;;;;;5016169;28;20040;-84
2023/08/13 14:46:09;;;;;;;0.20;0.10;;;;;;;;;;5040927;28;20048;-85
2023/08/13 14:48:35;;;;;;;0.20;0.17;;;;;;;;;;5035856;28;20040;-86
2023/08/13 14:51:01;;;;;;;0.20;0.10;;;;;;;;;;5017176;28;20045;-84
2023/08/13 14:53:27;;;;;;;0.20;0.10;;;;;;;;;;5042725;28;20041;-85
2023/08/13 14:55:53;;;;;;;0.20;0.10;;;;;;;;;;5028804;28;20037;-84
2023/08/13 14:58:19;;;;;;;0.30;0.30;;;;;;;;;;5021727;28;20044;-83